Time;durP1;ratioP1;P1;durP2;ratioP2;P2;SDS_P1;SDS_P2;PMS_P1;PMS_P2;Temp;Humidity;BMP_temperature;BMP_pressure;BME280_temperature;BME280_humidity;BME280_pressure;Samples;Min_cycle;Max_cycle;Signal;HPM_P1;HPM_P2
2023/07/02 00:01:26;;;;;;;8.50;6.82;;;14.70;99.90;;;;;;6216971;23;20028;-90
2023/07/02 00:04:20;;;;;;;10.52;7.15;;;14.70;99.90;;;;;;6198264;23;20029;-89
2023/07/02 00:07:07;;;;;;;11.65;7.95;;;14.70;99.90;;;;;;6198650;23;20028;-91
2023/07/02 00:09:55;;;;;;;9.23;7.28;;;14.80;99.90;;;;;;6200604;23;20383;-90
2023/07/02 00:12:44;;;;;;;9.38;6.95;;;14.80;99.90;;;;;;6201638;23;20021;-89
2023/07/02 00:15:31;;;;;;;7.90;6.70;;;14.70;99.90;;;;;;6234898;23;20356;-89
2023/07/02 00:18:19;;;;;;;8.52;6.65;;;14.70;99.90;;;;;;6214678;23;20031;-89
2023/07/02 00:21:06;;;;;;;11.20;7.55;;;14.70;99.90;;;;;;6233900;23;20025;-90
2023/07/02 00:23:59;;;;;;;10.95;8.05;;;14.60;99.90;;;;;;6240055;23;20009;-85
2023/07/02 00:26:47;;;;;;;7.90;6.75;;;14.60;99.90;;;;;;6242773;23;20077;-87
2023/07/02 00:29:36;;;;;;;12.75;7.85;;;14.50;99.90;;;;;;6224118;23;20019;-88
2023/07/02 00:32:24;;;;;;;9.07;7.03;;;14.50;99.90;;;;;;6233558;23;20020;-90
2023/07/02 00:35:16;;;;;;;8.23;7.22;;;14.50;99.90;;;;;;6235946;23;20320;-90
2023/07/02 00:38:03;;;;;;;11.93;7.47;;;14.50;99.90;;;;;;6235242;23;20062;-89
2023/07/02 00:40:51;;;;;;;10.35;6.75;;;14.50;99.90;;;;;;6229157;23;20025;-91
2023/07/02 00:43:43;;;;;;;7.38;6.07;;;14.50;99.90;;;;;;6219737;23;20083;-90
2023/07/02 00:46:32;;;;;;;8.48;6.72;;;14.50;99.90;;;;;;6219631;23;20024;-90
2023/07/02 00:49:19;;;;;;;7.50;6.63;;;14.60;99.90;;;;;;6218703;23;20044;-90
2023/07/02 00:52:13;;;;;;;7.82;5.63;;;14.60;99.90;;;;;;6197956;23;20025;-89
2023/07/02 00:55:03;;;;;;;6.40;5.60;;;14.50;99.90;;;;;;6216923;23;20323;-91
2023/07/02 00:57:53;;;;;;;9.98;6.25;;;14.50;99.90;;;;;;6215553;23;20388;-91
2023/07/02 01:00:42;;;;;;;6.43;5.78;;;14.60;99.90;;;;;;6194146;23;20400;-90
2023/07/02 01:03:32;;;;;;;8.75;6.18;;;14.50;99.90;;;;;;6195843;23;20323;-90
2023/07/02 01:06:27;;;;;;;9.05;5.47;;;14.50;99.90;;;;;;6194110;23;20052;-90
2023/07/02 01:09:14;;;;;;;7.68;6.03;;;14.50;99.90;;;;;;6215901;23;20454;-88
2023/07/02 01:12:08;;;;;;;7.28;5.78;;;14.40;99.90;;;;;;6193785;23;20052;-91
2023/07/02 01:15:00;;;;;;;9.30;5.78;;;14.40;99.90;;;;;;6216564;23;20021;-88
2023/07/02 01:17:49;;;;;;;9.55;5.50;;;14.30;99.90;;;;;;6216467;23;20039;-89
2023/07/02 01:20:37;;;;;;;7.45;5.43;;;14.30;99.90;;;;;;6216472;23;20381;-87
2023/07/02 01:23:24;;;;;;;8.55;6.05;;;14.20;99.90;;;;;;6216519;23;20024;-87
2023/07/02 01:26:12;;;;;;;5.95;5.18;;;14.20;99.90;;;;;;6195987;23;20027;-90
2023/07/02 01:29:11;;;;;;;9.10;5.78;;;14.20;99.90;;;;;;6195039;23;20024;-89
2023/07/02 01:31:58;;;;;;;7.82;5.47;;;14.10;99.90;;;;;;6216224;23;20021;-89
2023/07/02 01:34:48;;;;;;;10.18;6.13;;;14.00;99.90;;;;;;6194402;23;20048;-88
2023/07/02 01:37:37;;;;;;;17.20;6.97;;;13.90;99.90;;;;;;6215017;23;20173;-89
2023/07/02 01:40:24;;;;;;;7.75;6.30;;;13.80;99.90;;;;;;6217595;23;20040;-88
2023/07/02 01:43:12;;;;;;;12.90;6.88;;;13.70;99.90;;;;;;6214798;23;20024;-90
2023/07/02 01:46:02;;;;;;;9.20;6.82;;;13.70;99.90;;;;;;6215593;23;20043;-89
2023/07/02 01:48:50;;;;;;;9.18;6.72;;;13.70;99.90;;;;;;6215012;23;20055;-89
2023/07/02 01:51:39;;;;;;;10.55;7.38;;;13.70;99.90;;;;;;6194225;23;20048;-89
2023/07/02 01:54:27;;;;;;;11.50;7.13;;;13.70;99.90;;;;;;6194691;23;20020;-89
2023/07/02 01:57:14;;;;;;;7.93;6.45;;;13.70;99.90;;;;;;6215015;23;20281;-88
2023/07/02 02:00:03;;;;;;;8.50;7.60;;;13.70;99.90;;;;;;6215012;23;20024;-90
2023/07/02 02:02:50;;;;;;;12.68;6.82;;;13.80;99.90;;;;;;6215567;23;20047;-89
2023/07/02 02:05:38;;;;;;;8.85;6.45;;;13.80;99.90;;;;;;6193278;23;20029;-89
2023/07/02 02:08:27;;;;;;;8.52;6.72;;;13.80;99.90;;;;;;6198747;23;20044;-87
2023/07/02 02:11:15;;;;;;;11.80;6.97;;;13.80;99.90;;;;;;6224974;23;20024;-87
2023/07/02 02:14:02;;;;;;;11.40;6.65;;;13.90;99.90;;;;;;6220762;23;20324;-87
2023/07/02 02:16:49;;;;;;;8.32;6.00;;;13.90;99.90;;;;;;6220804;23;20024;-87
2023/07/02 02:19:39;;;;;;;6.63;5.78;;;13.90;99.90;;;;;;6221794;23;20021;-89
2023/07/02 02:22:27;;;;;;;9.73;6.55;;;14.00;99.90;;;;;;6197609;23;20028;-89
2023/07/02 02:25:14;;;;;;;11.85;7.07;;;13.90;99.90;;;;;;6215883;23;20443;-90
2023/07/02 02:28:01;;;;;;;9.35;6.00;;;14.00;99.90;;;;;;6216366;23;20277;-90
2023/07/02 02:30:48;;;;;;;6.45;5.72;;;14.00;99.90;;;;;;6214273;23;20035;-90
2023/07/02 02:33:36;;;;;;;7.88;5.88;;;14.10;99.90;;;;;;6195560;23;20032;-89
2023/07/02 02:36:26;;;;;;;7.10;6.07;;;14.10;99.90;;;;;;6219122;23;20029;-90
2023/07/02 02:39:14;;;;;;;20.33;6.75;;;14.10;99.90;;;;;;6216470;23;20024;-90
2023/07/02 02:42:01;;;;;;;6.63;5.72;;;14.10;99.90;;;;;;6217367;23;20032;-88
2023/07/02 02:44:48;;;;;;;8.23;5.75;;;14.20;99.90;;;;;;6215715;23;20428;-89
2023/07/02 02:47:38;;;;;;;6.80;5.65;;;14.10;99.90;;;;;;6193882;23;20407;-90
2023/07/02 02:50:28;;;;;;;8.15;6.05;;;14.20;99.90;;;;;;6214881;23;20044;-89
2023/07/02 02:53:15;;;;;;;9.75;6.00;;;14.20;99.90;;;;;;6215240;23;20024;-89
2023/07/02 02:56:02;;;;;;;8.73;6.30;;;14.20;99.90;;;;;;6215245;23;20031;-90
2023/07/02 02:58:50;;;;;;;9.05;6.20;;;14.20;99.90;;;;;;6216605;23;20039;-88
2023/07/02 03:01:42;;;;;;;8.05;6.18;;;14.20;99.90;;;;;;6215332;23;20024;-90
2023/07/02 03:04:31;;;;;;;9.43;7.43;;;14.20;99.90;;;;;;6215049;23;20028;-90
2023/07/02 03:07:19;;;;;;;11.32;7.25;;;14.20;99.90;;;;;;6214813;23;20516;-88
2023/07/02 03:10:10;;;;;;;9.88;7.43;;;14.20;99.90;;;;;;6214854;23;20025;-89
2023/07/02 03:12:57;;;;;;;10.10;7.97;;;14.20;99.90;;;;;;6194652;23;20035;-88
2023/07/02 03:15:45;;;;;;;13.50;8.38;;;14.10;99.90;;;;;;6214736;23;20025;-90
2023/07/02 03:18:32;;;;;;;12.30;8.05;;;14.10;99.90;;;;;;6196442;23;20020;-89
2023/07/02 03:21:22;;;;;;;16.23;9.50;;;14.10;99.90;;;;;;6217771;23;20032;-90
2023/07/02 03:24:13;;;;;;;14.55;9.35;;;14.00;99.90;;;;;;6217746;23;20024;-88
2023/07/02 03:27:00;;;;;;;13.32;9.00;;;14.00;99.90;;;;;;6216751;23;20123;-90
2023/07/02 03:29:47;;;;;;;13.93;8.32;;;14.00;99.90;;;;;;6214683;23;20377;-90
2023/07/02 03:32:37;;;;;;;9.93;7.47;;;14.00;99.90;;;;;;6213956;23;20028;-87
2023/07/02 03:35:24;;;;;;;13.90;8.02;;;13.80;99.90;;;;;;6215237;23;20027;-89
2023/07/02 03:38:11;;;;;;;47.72;8.98;;;13.80;99.90;;;;;;6194902;23;20024;-90
2023/07/02 03:41:01;;;;;;;11.85;7.45;;;13.80;99.90;;;;;;6214605;23;20032;-90
2023/07/02 03:43:48;;;;;;;13.35;8.98;;;13.70;99.90;;;;;;6192574;23;20024;-89
2023/07/02 03:46:35;;;;;;;10.18;7.55;;;13.60;99.90;;;;;;6215512;23;20025;-89
2023/07/02 03:49:23;;;;;;;12.77;8.40;;;13.60;99.90;;;;;;6199040;23;20393;-90
2023/07/02 03:52:10;;;;;;;11.30;7.75;;;13.60;99.90;;;;;;6203405;23;20032;-89
2023/07/02 03:54:59;;;;;;;10.35;8.18;;;13.60;99.90;;;;;;6219287;23;20040;-90
2023/07/02 03:57:46;;;;;;;10.38;7.65;;;13.50;99.90;;;;;;6217892;23;20052;-90
2023/07/02 04:00:49;;;;;;;14.18;8.90;;;13.50;99.90;;;;;;6218234;23;20024;-90
2023/07/02 04:07:52;;;;;;;14.02;8.70;;;13.50;99.90;;;;;;6070873;23;20023;-89
2023/07/02 04:10:39;;;;;;;10.85;8.68;;;13.50;99.90;;;;;;6190978;23;20418;-88
2023/07/02 04:13:29;;;;;;;11.07;8.70;;;13.50;99.90;;;;;;6219622;23;20036;-89
2023/07/02 04:16:16;;;;;;;15.43;9.05;;;13.50;99.90;;;;;;6197468;23;20040;-88
2023/07/02 04:19:03;;;;;;;12.65;8.90;;;13.60;99.90;;;;;;6194639;23;20168;-91
2023/07/02 04:21:50;;;;;;;11.48;7.95;;;13.60;99.90;;;;;;6217749;23;20032;-90
2023/07/02 04:24:38;;;;;;;11.05;8.45;;;13.60;99.90;;;;;;6215551;23;20031;-90
2023/07/02 04:27:25;;;;;;;10.05;7.57;;;13.60;99.90;;;;;;6216547;23;20094;-90
2023/07/02 04:30:33;;;;;;;9.73;7.60;;;13.60;99.90;;;;;;6216082;23;20028;-90
2023/07/02 04:33:20;;;;;;;9.43;7.63;;;13.60;99.90;;;;;;6216860;23;20126;-90
2023/07/02 04:36:08;;;;;;;13.40;7.78;;;13.60;99.90;;;;;;6196619;23;20024;-89
2023/07/02 04:38:55;;;;;;;10.05;8.23;;;13.70;99.90;;;;;;6218971;23;20107;-89
2023/07/02 04:41:42;;;;;;;9.23;7.78;;;13.80;99.90;;;;;;6217882;23;20024;-88
2023/07/02 04:44:32;;;;;;;10.48;8.13;;;13.90;99.90;;;;;;6195229;23;20032;-90
2023/07/02 04:47:20;;;;;;;10.13;7.35;;;14.00;99.90;;;;;;6196536;23;20028;-90
2023/07/02 04:50:11;;;;;;;11.35;7.80;;;13.90;99.90;;;;;;6216776;23;20055;-89
2023/07/02 04:52:59;;;;;;;14.50;8.00;;;13.90;99.90;;;;;;6215912;23;20028;-91
2023/07/02 04:55:48;;;;;;;9.63;7.60;;;14.00;99.90;;;;;;6195541;23;20025;-90
2023/07/02 04:58:35;;;;;;;11.70;8.00;;;14.00;99.90;;;;;;6216058;23;20048;-90
2023/07/02 05:01:23;;;;;;;12.77;8.45;;;14.00;99.90;;;;;;6195474;23;20025;-89
2023/07/02 05:04:11;;;;;;;10.75;7.85;;;14.00;99.90;;;;;;6194358;23;20021;-90
2023/07/02 05:07:02;;;;;;;11.18;7.43;;;14.10;99.90;;;;;;6217006;23;20027;-90
2023/07/02 05:09:51;;;;;;;14.40;7.20;;;14.20;99.90;;;;;;6197244;23;20464;-89
2023/07/02 05:12:39;;;;;;;25.92;6.85;;;14.20;99.90;;;;;;6219583;23;20035;-88
2023/07/02 05:15:26;;;;;;;10.15;6.97;;;14.10;99.90;;;;;;6215521;23;20029;-88
2023/07/02 05:18:14;;;;;;;17.23;6.72;;;14.10;99.90;;;;;;6195093;23;20048;-89
2023/07/02 05:21:02;;;;;;;10.40;7.10;;;14.00;99.90;;;;;;6214018;23;20029;-87
2023/07/02 05:23:49;;;;;;;13.75;7.22;;;13.90;99.90;;;;;;6215608;23;20100;-89
2023/07/02 05:26:37;;;;;;;10.70;6.70;;;13.90;99.90;;;;;;6195413;23;20453;-88
2023/07/02 05:29:24;;;;;;;13.55;6.75;;;13.90;99.90;;;;;;6173547;23;20031;-89
2023/07/02 05:32:11;;;;;;;11.48;7.10;;;13.90;99.90;;;;;;6195212;23;20024;-88
2023/07/02 05:34:59;;;;;;;14.13;7.43;;;14.10;99.90;;;;;;6214147;23;20028;-89
2023/07/02 05:37:46;;;;;;;16.73;7.53;;;14.20;99.90;;;;;;6199624;23;20028;-87
2023/07/02 05:40:35;;;;;;;11.30;7.22;;;14.30;99.90;;;;;;6215125;23;20021;-89
2023/07/02 05:43:23;;;;;;;13.23;7.05;;;14.40;99.90;;;;;;6197340;23;20039;-88
2023/07/02 05:46:10;;;;;;;15.18;7.05;;;14.40;99.90;;;;;;6214677;23;20028;-89
2023/07/02 05:49:01;;;;;;;14.23;7.63;;;14.50;99.90;;;;;;6216843;23;20036;-89
2023/07/02 05:51:51;;;;;;;11.77;6.22;;;14.50;99.90;;;;;;6216290;23;20029;-88
2023/07/02 05:54:42;;;;;;;17.77;7.00;;;14.50;99.90;;;;;;6215862;23;20096;-86
2023/07/02 05:57:32;;;;;;;11.30;6.60;;;14.60;99.90;;;;;;6215844;23;20462;-88
2023/07/02 06:00:19;;;;;;;15.18;6.88;;;14.70;99.90;;;;;;6194009;23;20032;-88
2023/07/02 06:03:08;;;;;;;15.23;6.57;;;14.70;99.90;;;;;;6193665;23;20136;-87
2023/07/02 06:05:55;;;;;;;12.10;6.55;;;14.80;99.90;;;;;;6216124;23;20032;-87
2023/07/02 06:08:43;;;;;;;13.10;6.40;;;15.00;1.00;;;;;;6214838;23;20412;-90
2023/07/02 06:11:30;;;;;;;13.88;6.72;;;15.10;99.90;;;;;;6214772;23;20039;-89
2023/07/02 06:14:18;;;;;;;15.43;8.15;;;15.30;87.30;;;;;;6217369;23;20038;-89
2023/07/02 06:17:07;;;;;;;18.52;7.22;;;15.40;92.30;;;;;;6217877;23;20028;-89
2023/07/02 06:19:54;;;;;;;16.23;8.50;;;15.50;1.00;;;;;;6216911;23;20076;-88
2023/07/02 06:22:43;;;;;;;18.80;7.57;;;15.70;99.90;;;;;;6195553;23;20413;-88
2023/07/02 06:25:31;;;;;;;16.10;7.35;;;15.80;99.90;;;;;;6214716;23;20024;-90
2023/07/02 06:28:18;;;;;;;16.67;8.02;;;16.10;1.00;;;;;;6195191;23;20052;-89
2023/07/02 06:31:05;;;;;;;15.95;7.78;;;16.40;1.00;;;;;;6217006;23;20038;-89
2023/07/02 06:34:00;;;;;;;21.48;7.72;;;16.50;99.90;;;;;;6195558;23;20044;-92
2023/07/02 06:36:48;;;;;;;15.60;8.85;;;16.60;48.40;;;;;;6216150;23;20041;-91
2023/07/02 06:39:35;;;;;;;17.65;7.57;;;16.80;99.90;;;;;;6215216;23;20079;-90
2023/07/02 06:42:24;;;;;;;18.70;8.55;;;16.90;99.90;;;;;;6216355;23;20028;-92
2023/07/02 06:45:13;;;;;;;21.30;10.07;;;17.10;99.90;;;;;;6215508;23;20024;-89
2023/07/02 06:48:02;;;;;;;20.30;8.63;;;17.30;85.20;;;;;;6217008;23;20024;-90
2023/07/02 06:50:50;;;;;;;22.52;10.20;;;17.50;1.00;;;;;;6216043;23;20095;-92
2023/07/02 06:53:45;;;;;;;22.40;10.00;;;17.80;1.00;;;;;;6216093;23;20024;-90
2023/07/02 06:56:33;;;;;;;21.08;10.55;;;17.90;99.90;;;;;;6216196;23;20028;-90
2023/07/02 06:59:22;;;;;;;23.70;11.68;;;18.20;99.90;;;;;;6215114;23;20036;-90
2023/07/02 07:02:10;;;;;;;21.75;11.70;;;18.50;99.90;;;;;;6195305;23;20028;-91
2023/07/02 07:04:57;;;;;;;24.48;11.23;;;18.30;75.40;;;;;;6195133;23;20447;-91
2023/07/02 07:07:46;;;;;;;22.33;12.32;;;18.00;44.80;;;;;;6197746;23;20033;-89
2023/07/02 07:10:34;;;;;;;28.83;12.27;;;18.10;1.80;;;;;;6203695;23;20022;-90
2023/07/02 07:13:21;;;;;;;29.80;13.13;;;18.10;1.00;;;;;;6200378;23;20020;-91
2023/07/02 07:16:10;;;;;;;25.67;12.93;;;18.10;1.00;;;;;;6201734;23;20091;-89
2023/07/02 07:18:59;;;;;;;24.15;13.00;;;18.20;1.00;;;;;;6224683;23;20035;-89
2023/07/02 07:21:47;;;;;;;26.27;12.18;;;18.50;1.00;;;;;;6224375;23;20453;-92
2023/07/02 07:24:35;;;;;;;24.55;13.63;;;18.40;1.00;;;;;;6223356;23;20100;-90
2023/07/02 07:27:22;;;;;;;27.55;12.85;;;18.40;1.00;;;;;;6202248;23;20148;-92
2023/07/02 07:30:10;;;;;;;29.05;14.98;;;18.20;99.90;;;;;;6199582;23;20420;-90
2023/07/02 07:33:00;;;;;;;22.88;13.75;;;18.10;99.90;;;;;;6217752;23;20099;-91
2023/07/02 07:35:47;;;;;;;25.25;13.57;;;18.40;99.90;;;;;;6218974;23;20025;-91
2023/07/02 07:38:35;;;;;;;24.48;13.68;;;18.80;99.90;;;;;;6198215;23;20035;-91
2023/07/02 07:41:25;;;;;;;33.10;14.63;;;19.20;99.90;;;;;;6217861;23;20029;-89
2023/07/02 07:44:13;;;;;;;30.42;14.57;;;19.60;99.90;;;;;;6197208;23;20060;-89
2023/07/02 07:47:00;;;;;;;27.42;14.65;;;19.90;99.90;;;;;;6219994;23;20028;-90
2023/07/02 07:49:48;;;;;;;24.20;14.27;;;20.40;99.90;;;;;;6217406;23;20403;-89
2023/07/02 07:52:39;;;;;;;29.98;15.07;;;19.80;99.90;;;;;;6217441;23;20025;-90
2023/07/02 07:55:26;;;;;;;29.60;14.38;;;19.40;99.90;;;;;;6217987;23;20056;-92
2023/07/02 07:58:15;;;;;;;25.45;13.98;;;19.40;99.90;;;;;;6216602;23;20095;-90
2023/07/02 08:01:03;;;;;;;30.52;14.30;;;19.50;99.90;;;;;;6217313;23;20032;-93
2023/07/02 08:03:50;;;;;;;29.30;14.95;;;20.10;99.90;;;;;;6199164;23;20039;-89
2023/07/02 08:06:37;;;;;;;26.23;14.25;;;20.60;99.90;;;;;;6217855;23;20032;-88
2023/07/02 08:09:28;;;;;;;27.15;14.15;;;21.10;99.90;;;;;;6217420;23;20032;-88
2023/07/02 08:12:15;;;;;;;25.00;14.13;;;21.00;99.90;;;;;;6216738;23;20028;-90
2023/07/02 08:15:06;;;;;;;27.42;14.95;;;21.20;99.90;;;;;;6220076;23;20285;-91
2023/07/02 08:17:58;;;;;;;28.02;14.57;;;20.50;99.90;;;;;;6218717;23;20029;-90
2023/07/02 08:20:46;;;;;;;30.52;14.80;;;19.90;99.90;;;;;;6196498;23;20025;-92
2023/07/02 08:23:34;;;;;;;27.88;14.77;;;20.00;99.90;;;;;;6218950;23;20116;-91
2023/07/02 08:26:22;;;;;;;27.45;15.43;;;20.60;99.90;;;;;;6216811;23;20124;-90
2023/07/02 08:29:09;;;;;;;29.17;14.90;;;20.70;99.90;;;;;;6218771;23;20033;-90
2023/07/02 08:32:01;;;;;;;35.90;15.75;;;20.30;99.90;;;;;;6216494;23;20032;-91
2023/07/02 08:34:50;;;;;;;24.50;13.93;;;20.20;99.90;;;;;;6216418;23;20024;-89
2023/07/02 08:37:38;;;;;;;31.15;14.63;;;20.10;99.90;;;;;;6216335;23;20052;-89
2023/07/02 08:40:28;;;;;;;27.13;14.93;;;19.90;99.90;;;;;;6233890;23;20035;-88
2023/07/02 08:43:18;;;;;;;27.27;15.05;;;19.70;99.90;;;;;;6250970;22;20028;-88
2023/07/02 08:46:07;;;;;;;28.80;15.35;;;19.90;99.90;;;;;;6227503;23;20024;-90
2023/07/02 08:48:57;;;;;;;24.95;14.77;;;20.20;99.90;;;;;;6226576;23;20020;-88
2023/07/02 08:51:45;;;;;;;26.48;14.43;;;20.60;99.90;;;;;;6249716;22;20189;-89
2023/07/02 08:54:33;;;;;;;26.33;14.10;;;20.90;99.50;;;;;;6249949;23;20024;-90
2023/07/02 08:57:21;;;;;;;27.23;14.93;;;21.00;97.10;;;;;;6228242;23;20027;-90
2023/07/02 09:00:10;;;;;;;21.05;12.40;;;21.10;86.20;;;;;;6250353;22;20035;-90
2023/07/02 09:02:57;;;;;;;22.92;12.60;;;21.40;77.90;;;;;;6249476;23;20034;-92
2023/07/02 09:05:51;;;;;;;21.13;11.85;;;21.30;57.20;;;;;;6249012;23;20051;-90
2023/07/02 09:08:39;;;;;;;28.63;11.85;;;21.20;50.60;;;;;;6248064;23;20028;-89
2023/07/02 09:11:26;;;;;;;23.52;11.95;;;21.40;47.70;;;;;;6251616;23;20344;-90
2023/07/02 09:14:27;;;;;;;20.75;12.02;;;21.80;36.00;;;;;;6238837;23;20043;-88
2023/07/02 09:17:16;;;;;;;18.05;11.70;;;22.40;32.00;;;;;;6260091;23;20443;-89
2023/07/02 09:20:08;;;;;;;17.70;11.15;;;22.30;21.70;;;;;;6257942;23;20027;-88
2023/07/02 09:22:57;;;;;;;21.42;11.35;;;21.90;23.20;;;;;;6238664;23;20032;-88
2023/07/02 09:25:47;;;;;;;23.92;12.95;;;21.70;21.10;;;;;;6244955;23;20032;-87
2023/07/02 09:28:36;;;;;;;22.27;12.35;;;21.60;20.40;;;;;;6233050;23;20024;-90
2023/07/02 09:31:24;;;;;;;25.05;13.30;;;21.50;13.40;;;;;;6230382;23;20028;-87
2023/07/02 09:34:12;;;;;;;24.17;12.77;;;21.30;18.40;;;;;;6231206;23;20027;-90
2023/07/02 09:37:01;;;;;;;26.42;13.88;;;21.50;16.10;;;;;;6235298;23;20062;-90
2023/07/02 09:39:55;;;;;;;27.92;16.58;;;21.40;10.20;;;;;;6242343;22;20039;-90
2023/07/02 09:42:42;;;;;;;32.10;18.65;;;21.00;5.20;;;;;;6218957;23;20072;-87
2023/07/02 09:45:30;;;;;;;29.52;18.27;;;21.50;3.10;;;;;;6218495;23;20025;-91
2023/07/02 09:48:25;;;;;;;35.40;18.63;;;22.00;1.00;;;;;;6217667;23;20021;-86
2023/07/02 09:51:13;;;;;;;28.92;17.08;;;21.40;1.00;;;;;;6198809;23;20052;-90
2023/07/02 09:54:01;;;;;;;25.90;15.30;;;22.00;1.00;;;;;;6223611;23;20028;-87
2023/07/02 09:56:48;;;;;;;25.00;14.80;;;22.60;1.00;;;;;;6233535;23;20021;-89
2023/07/02 09:59:37;;;;;;;23.10;14.88;;;22.80;1.00;;;;;;6234571;23;20084;-88
2023/07/02 10:02:25;;;;;;;25.42;14.13;;;23.00;1.00;;;;;;6230002;23;20040;-92
2023/07/02 10:05:25;;;;;;;23.15;14.52;;;23.80;1.00;;;;;;6234649;23;20072;-87
2023/07/02 10:08:17;;;;;;;27.50;14.57;;;23.90;1.00;;;;;;6241237;23;20076;-87
2023/07/02 10:11:15;;;;;;;27.98;16.98;;;23.60;1.00;;;;;;6215434;23;20111;-90
2023/07/02 10:14:02;;;;;;;26.05;16.42;;;23.60;1.00;;;;;;6232715;23;20068;-88
2023/07/02 10:16:54;;;;;;;30.10;17.33;;;23.80;1.00;;;;;;6230699;23;20316;-88
2023/07/02 10:19:51;;;;;;;29.05;17.95;;;24.40;1.00;;;;;;6231428;23;20021;-87
2023/07/02 10:22:54;;;;;;;25.55;16.67;;;24.40;1.00;;;;;;6223264;23;20031;-90
2023/07/02 10:25:43;;;;;;;;;;;24.30;1.00;;;;;;6200389;23;20053;-88
2023/07/02 10:28:31;;;;;;;26.85;16.08;;;24.40;1.00;;;;;;6200507;23;20365;-87
2023/07/02 10:31:22;;;;;;;27.67;16.10;;;25.00;1.00;;;;;;6225557;22;20035;-89
2023/07/02 10:34:09;;;;;;;24.45;15.40;;;25.00;1.00;;;;;;6218474;23;20036;-90
2023/07/02 10:36:59;;;;;;;27.85;17.58;;;25.80;1.00;;;;;;6217574;23;20440;-90
2023/07/02 10:39:49;;;;;;;26.55;15.73;;;26.20;1.00;;;;;;6197185;23;20025;-89
2023/07/02 10:42:46;;;;;;;22.15;15.20;;;26.30;1.00;;;;;;6220430;23;20078;-87
2023/07/02 10:45:36;;;;;;;24.83;15.00;;;26.60;1.00;;;;;;6216097;23;20270;-88
2023/07/02 10:48:24;;;;;;;26.35;15.10;;;26.80;1.00;;;;;;6219017;23;20024;-88
2023/07/02 10:51:12;;;;;;;24.60;15.57;;;26.90;1.00;;;;;;6218896;23;20029;-91
2023/07/02 10:54:05;;;;;;;24.48;15.10;;;26.60;1.00;;;;;;6218532;23;20047;-89
2023/07/02 10:56:59;;;;;;;23.77;14.77;;;26.00;1.00;;;;;;6217890;23;20099;-87
2023/07/02 10:59:47;;;;;;;28.63;16.42;;;25.40;1.00;;;;;;6217697;23;20028;-89
2023/07/02 11:02:37;;;;;;;25.00;14.38;;;25.00;1.00;;;;;;6218370;23;20690;-90
2023/07/02 11:05:29;;;;;;;23.95;14.18;;;24.80;1.00;;;;;;6223152;23;20028;-86
2023/07/02 11:08:21;;;;;;;24.40;13.65;;;25.30;1.00;;;;;;6219906;23;20029;-91
2023/07/02 11:11:09;;;;;;;23.55;14.38;;;25.70;1.00;;;;;;6223338;23;20025;-88
2023/07/02 11:13:58;;;;;;;22.85;15.07;;;26.60;1.00;;;;;;6218859;23;20104;-91
2023/07/02 11:16:46;;;;;;;21.98;14.82;;;26.70;1.00;;;;;;6218900;23;20032;-88
2023/07/02 11:19:35;;;;;;;23.95;14.82;;;26.00;1.00;;;;;;6216057;23;20021;-87
2023/07/02 11:22:31;;;;;;;21.92;14.30;;;26.50;1.00;;;;;;6218266;23;20021;-90
2023/07/02 11:25:22;;;;;;;25.00;14.60;;;26.70;1.00;;;;;;6215986;23;20024;-88
2023/07/02 11:28:11;;;;;;;26.10;14.68;;;26.40;1.00;;;;;;6218444;23;20024;-88
2023/07/02 11:30:59;;;;;;;21.80;14.10;;;26.40;1.00;;;;;;6215300;23;20066;-87
2023/07/02 11:33:47;;;;;;;23.08;14.38;;;26.30;1.00;;;;;;6217196;23;20017;-89
2023/07/02 11:36:35;;;;;;;22.52;13.65;;;26.40;1.00;;;;;;6215978;23;20089;-90
2023/07/02 11:39:22;;;;;;;20.70;13.70;;;27.00;1.00;;;;;;6218053;23;20345;-91
2023/07/02 11:42:10;;;;;;;22.95;14.65;;;27.40;1.00;;;;;;6195884;23;20021;-87
2023/07/02 11:44:57;;;;;;;20.83;13.82;;;28.10;1.00;;;;;;6196699;23;20086;-90
2023/07/02 11:47:45;;;;;;;23.25;13.85;;;27.20;1.00;;;;;;6198213;23;20352;-88
2023/07/02 11:50:33;;;;;;;21.05;13.27;;;26.90;1.00;;;;;;6222201;23;20372;-91
2023/07/02 11:53:20;;;;;;;21.38;13.75;;;28.10;1.00;;;;;;6203512;23;20424;-90
2023/07/02 11:56:08;;;;;;;21.40;13.52;;;29.00;1.00;;;;;;6200242;23;20054;-90
2023/07/02 11:58:55;;;;;;;24.92;14.45;;;29.50;1.00;;;;;;6193895;23;20055;-89
2023/07/02 12:01:43;;;;;;;24.33;15.23;;;28.20;1.00;;;;;;6214224;23;20656;-91
2023/07/02 12:04:32;;;;;;;22.08;13.93;;;27.50;1.00;;;;;;6195122;23;20020;-90
2023/07/02 12:07:20;;;;;;;23.33;14.05;;;28.10;1.00;;;;;;6216079;23;20029;-90
2023/07/02 12:10:08;;;;;;;22.30;13.93;;;27.70;1.00;;;;;;6217573;23;20499;-90
2023/07/02 12:12:56;;;;;;;21.95;13.25;;;28.30;1.00;;;;;;6220027;23;20324;-89
2023/07/02 12:15:44;;;;;;;27.42;13.68;;;29.10;1.00;;;;;;6216538;23;20104;-91
2023/07/02 12:18:33;;;;;;;19.77;13.60;;;28.90;1.00;;;;;;6226911;23;20029;-88
2023/07/02 12:21:21;;;;;;;20.23;13.57;;;28.20;1.00;;;;;;6220977;23;20116;-90
2023/07/02 12:24:09;;;;;;;23.60;14.43;;;28.70;1.00;;;;;;6201211;23;20025;-91
2023/07/02 12:26:57;;;;;;;24.33;14.38;;;27.70;1.00;;;;;;6198547;23;20029;-88
2023/07/02 12:29:44;;;;;;;19.63;13.73;;;28.40;1.00;;;;;;6220899;23;20206;-89
2023/07/02 12:32:32;;;;;;;21.67;13.35;;;28.70;1.00;;;;;;6197272;23;20365;-91
2023/07/02 12:35:23;;;;;;;22.42;13.10;;;29.30;1.00;;;;;;6218181;23;20035;-91
2023/07/02 12:38:12;;;;;;;19.77;13.13;;;27.90;1.00;;;;;;6218394;23;20103;-87
2023/07/02 12:40:59;;;;;;;21.88;12.95;;;27.50;1.00;;;;;;6214455;23;20024;-89
2023/07/02 12:43:48;;;;;;;20.05;13.50;;;28.20;1.00;;;;;;6195883;23;20100;-88
2023/07/02 12:46:38;;;;;;;19.88;12.85;;;27.70;1.00;;;;;;6214562;23;20388;-90
2023/07/02 12:49:26;;;;;;;20.58;12.85;;;27.60;1.00;;;;;;6194930;23;20436;-88
2023/07/02 12:52:13;;;;;;;20.77;13.50;;;27.80;1.00;;;;;;6216357;23;20029;-88
2023/07/02 12:55:04;;;;;;;17.42;12.30;;;27.40;1.00;;;;;;6215589;23;20024;-89
2023/07/02 12:57:55;;;;;;;18.90;12.57;;;27.30;1.00;;;;;;6214435;23;20025;-89
2023/07/02 13:00:45;;;;;;;21.35;13.05;;;27.90;1.00;;;;;;6217803;23;20024;-89
2023/07/02 13:03:32;;;;;;;20.25;12.70;;;28.60;1.00;;;;;;6214424;23;20446;-89
2023/07/02 13:06:20;;;;;;;23.60;14.02;;;28.60;1.00;;;;;;6214474;23;20025;-89
2023/07/02 13:09:08;;;;;;;20.02;12.98;;;29.10;1.00;;;;;;6216396;23;20028;-89
2023/07/02 13:11:55;;;;;;;20.60;13.75;;;28.80;1.00;;;;;;6215628;23;20430;-89
2023/07/02 13:14:43;;;;;;;19.63;13.25;;;28.50;1.00;;;;;;6192465;23;20024;-89
2023/07/02 13:17:33;;;;;;;18.27;12.35;;;28.30;1.00;;;;;;6193125;23;20301;-89
2023/07/02 13:20:21;;;;;;;20.63;13.95;;;28.80;1.00;;;;;;6192941;23;20503;-90
2023/07/02 13:23:10;;;;;;;20.73;13.40;;;28.30;1.00;;;;;;6213500;23;20031;-87
2023/07/02 13:25:57;;;;;;;19.13;12.98;;;28.60;1.00;;;;;;6216783;23;20025;-90
2023/07/02 13:28:48;;;;;;;20.52;12.65;;;28.60;1.00;;;;;;6194009;23;20033;-90
2023/07/02 13:31:39;;;;;;;;;;;29.30;1.00;;;;;;6217128;23;20297;-88
2023/07/02 13:34:28;;;;;;;18.65;12.40;;;30.50;1.00;;;;;;6215848;23;20474;-88
2023/07/02 13:37:19;;;;;;;23.27;13.73;;;31.20;1.00;;;;;;6214373;23;20087;-91
2023/07/02 13:40:10;;;;;;;19.57;13.53;;;30.50;1.00;;;;;;6139067;23;1622886;-90
2023/07/02 13:42:57;;;;;;;21.35;13.90;;;29.80;1.00;;;;;;6248334;23;20079;-90
2023/07/02 13:45:45;;;;;;;22.85;14.07;;;28.90;1.00;;;;;;6227447;23;20032;-87
2023/07/02 13:48:32;;;;;;;21.10;13.90;;;28.40;1.00;;;;;;6248497;23;20024;-88
2023/07/02 13:51:19;;;;;;;20.20;13.02;;;28.10;1.00;;;;;;6249450;22;20091;-88
2023/07/02 13:54:06;;;;;;;24.50;13.40;;;28.40;1.00;;;;;;6248312;23;20430;-89
2023/07/02 13:56:56;;;;;;;21.58;13.32;;;28.10;1.00;;;;;;6226677;23;20041;-91
2023/07/02 13:59:45;;;;;;;19.52;13.88;;;29.40;1.00;;;;;;6247113;23;20031;-91
2023/07/02 14:02:33;;;;;;;21.83;14.10;;;30.20;1.00;;;;;;6249056;23;20111;-90
2023/07/02 14:05:21;;;;;;;24.15;15.05;;;29.30;1.00;;;;;;6249583;22;20039;-88
2023/07/02 14:08:09;;;;;;;19.83;12.82;;;29.40;1.00;;;;;;6248836;23;20038;-91
2023/07/02 14:10:59;;;;;;;20.08;13.82;;;29.70;1.00;;;;;;6247292;23;20047;-91
2023/07/02 14:13:47;;;;;;;22.50;14.77;;;29.50;1.00;;;;;;6226633;23;20028;-88
2023/07/02 14:16:35;;;;;;;22.13;14.90;;;29.60;1.00;;;;;;6228178;23;20081;-89
2023/07/02 14:19:25;;;;;;;22.00;15.13;;;29.70;1.00;;;;;;6248899;23;20020;-88
2023/07/02 14:22:12;;;;;;;21.55;14.65;;;29.60;1.00;;;;;;6253824;23;20028;-89
2023/07/02 14:25:00;;;;;;;22.90;14.93;;;30.10;1.00;;;;;;6251771;23;20094;-88
2023/07/02 14:27:48;;;;;;;20.95;13.98;;;30.00;1.00;;;;;;6247896;23;20050;-91
2023/07/02 14:30:36;;;;;;;18.88;13.90;;;30.00;1.00;;;;;;6249259;22;20083;-89
2023/07/02 14:33:25;;;;;;;20.85;14.18;;;29.50;1.00;;;;;;6249380;22;20028;-90